createdAt,value
2018-04-07T00:01:06.593Z,8.58
2018-04-07T00:02:28.662Z,8.53
2018-04-07T00:03:50.458Z,8.55
2018-04-07T00:05:12.247Z,8.48
2018-04-07T00:06:34.038Z,8.52
2018-04-07T00:07:56.094Z,8.48
2018-04-07T00:09:18.143Z,8.44
2018-04-07T00:10:39.931Z,8.36
2018-04-07T00:12:01.199Z,8.41
2018-04-07T00:13:22.462Z,8.36
2018-04-07T00:14:44.016Z,8.37
2018-04-07T00:16:06.079Z,8.41
2018-04-07T00:17:27.881Z,8.44
2018-04-07T00:18:49.690Z,8.3
2018-04-07T00:20:11.493Z,8.33
2018-04-07T00:21:33.574Z,8.34
2018-04-07T00:22:55.365Z,8.18
2018-04-07T00:24:17.428Z,8.15
2018-04-07T00:25:39.223Z,8.16
2018-04-07T00:27:01.275Z,8.19
2018-04-07T00:28:23.063Z,8.12
2018-04-07T00:29:45.113Z,8.1
2018-04-07T00:31:06.638Z,8.02
2018-04-07T00:32:28.431Z,8.01
2018-04-07T00:33:50.494Z,8.04
2018-04-07T00:35:12.556Z,8.08
2018-04-07T00:36:34.620Z,8.01
2018-04-07T00:37:56.671Z,8.04
2018-04-07T00:39:18.466Z,8.05
2018-04-07T00:40:40.284Z,8.02
2018-04-07T00:42:02.072Z,8
2018-04-07T00:43:23.864Z,7.95
2018-04-07T00:44:45.930Z,7.86
2018-04-07T00:46:07.468Z,7.86
2018-04-07T00:47:29.254Z,7.89
2018-04-07T00:48:51.339Z,7.95
2018-04-07T00:50:12.859Z,7.93
2018-04-07T00:51:34.128Z,7.8
2018-04-07T00:52:55.912Z,7.9
2018-04-07T00:54:17.459Z,7.92
2018-04-07T00:55:39.499Z,7.83
2018-04-07T00:57:01.556Z,7.93
2018-04-07T00:58:23.081Z,7.89
2018-04-07T00:59:44.873Z,7.79
2018-04-07T01:01:06.931Z,7.93
2018-04-07T01:02:28.472Z,7.85
2018-04-07T01:03:50.252Z,7.79
2018-04-07T01:05:12.033Z,7.72
2018-04-07T01:06:33.562Z,7.71
2018-04-07T01:07:55.639Z,7.8
2018-04-07T01:09:16.911Z,7.93
2018-04-07T01:10:38.954Z,7.8
2018-04-07T01:12:00.742Z,7.86
2018-04-07T01:13:22.533Z,7.79
2018-04-07T01:14:44.327Z,7.71
2018-04-07T01:16:06.390Z,7.83
2018-04-07T01:17:28.181Z,7.82
2018-04-07T01:18:49.987Z,7.82
2018-04-07T01:20:12.058Z,7.85
2018-04-07T01:21:34.111Z,7.82
2018-04-07T01:22:56.161Z,7.69
2018-04-07T01:24:17.690Z,7.74
2018-04-07T01:25:38.704Z,7.63
2018-04-07T01:27:00.248Z,7.63
2018-04-07T01:28:21.784Z,7.61
2018-04-07T01:29:43.298Z,7.5
2018-04-07T01:31:04.838Z,7.46
2018-04-07T01:32:26.903Z,7.45
2018-04-07T01:33:48.432Z,7.53
2018-04-07T01:35:09.702Z,7.61
2018-04-07T01:36:31.265Z,7.52
2018-04-07T01:37:53.070Z,7.48
2018-04-07T01:39:14.857Z,7.52
2018-04-07T01:40:36.905Z,7.55
2018-04-07T01:41:58.706Z,7.4
2018-04-07T01:43:20.753Z,7.32
2018-04-07T01:44:42.289Z,7.28
2018-04-07T01:46:04.106Z,7.3
2018-04-07T01:47:26.207Z,7.28
2018-04-07T01:48:47.993Z,7.4
2018-04-07T01:50:09.804Z,7.32
2018-04-07T01:51:31.853Z,7.37
2018-04-07T01:52:53.126Z,7.23
2018-04-07T01:54:14.920Z,7.3
2018-04-07T01:55:36.701Z,7.28
2018-04-07T01:56:58.490Z,7.25
2018-04-07T01:58:20.020Z,7.25
2018-04-07T01:59:41.544Z,7.17
2018-04-07T02:01:02.820Z,7.13
2018-04-07T02:02:24.896Z,7.16
2018-04-07T02:03:46.944Z,7.17
2018-04-07T02:05:09.018Z,7.16
2018-04-07T02:06:30.543Z,7.17
2018-04-07T02:07:52.077Z,7.07
2018-04-07T02:09:14.131Z,7.16
2018-04-07T02:10:36.180Z,7.15
2018-04-07T02:11:58.232Z,7.23
2018-04-07T02:13:19.502Z,7.23
2018-04-07T02:14:41.539Z,7.21
2018-04-07T02:16:02.561Z,7.16
2018-04-07T02:17:24.344Z,7.15
2018-04-07T02:18:46.128Z,7.13
2018-04-07T02:20:07.407Z,7.1
2018-04-07T02:21:28.935Z,7.13
2018-04-07T02:22:50.735Z,7.02
2018-04-07T02:24:12.845Z,7.03
2018-04-07T02:25:34.397Z,6.92
2018-04-07T02:26:56.448Z,6.91
2018-04-07T02:28:18.229Z,6.81
2018-04-07T02:29:39.759Z,6.84
2018-04-07T02:31:01.818Z,6.69
2018-04-07T02:32:23.600Z,6.71
2018-04-07T02:33:45.674Z,6.84
2018-04-07T02:35:07.210Z,6.73
2018-04-07T02:36:29.276Z,6.69
2018-04-07T02:37:50.551Z,6.69
2018-04-07T02:39:12.340Z,6.69
2018-04-07T02:40:34.177Z,6.7
2018-04-07T02:41:55.726Z,6.67
2018-04-07T02:43:17.256Z,6.61
2018-04-07T02:44:39.051Z,6.73
2018-04-07T02:46:00.859Z,6.58
2018-04-07T02:47:22.669Z,6.67
2018-04-07T02:48:44.197Z,6.54
2018-04-07T02:50:06.004Z,6.58
2018-04-07T02:51:27.817Z,6.43
2018-04-07T02:52:49.612Z,6.41
2018-04-07T02:54:11.407Z,6.34
2018-04-07T02:55:32.937Z,6.22
2018-04-07T02:56:54.730Z,6.22
2018-04-07T02:58:16.792Z,6.22
2018-04-07T02:59:38.604Z,6.21
2018-04-07T03:00:59.890Z,6.21
2018-04-07T03:02:21.424Z,6.19
2018-04-07T03:03:43.321Z,6.17
2018-04-07T03:05:04.860Z,6.17
2018-04-07T03:06:26.645Z,6.19
2018-04-07T03:07:48.450Z,6.21
2018-04-07T03:09:09.988Z,6.21
2018-04-07T03:10:31.517Z,6.11
2018-04-07T03:11:53.564Z,6.15
2018-04-07T03:13:15.347Z,6.12
2018-04-07T03:14:37.144Z,6.17
2018-04-07T03:15:58.670Z,6.06
2018-04-07T03:17:20.714Z,6.03
2018-04-07T03:18:42.497Z,6.03
2018-04-07T03:20:04.543Z,5.94
2018-04-07T03:21:26.088Z,5.91
2018-04-07T03:22:47.880Z,5.9
2018-04-07T03:24:09.936Z,5.86
2018-04-07T03:25:31.467Z,5.9
2018-04-07T03:26:53.274Z,5.85
2018-04-07T03:28:15.329Z,5.83
2018-04-07T03:29:36.851Z,5.81
2018-04-07T03:30:58.642Z,5.74
2018-04-07T03:32:20.431Z,5.72
2018-04-07T03:33:42.229Z,5.72
2018-04-07T03:35:03.502Z,5.71
2018-04-07T03:36:25.288Z,5.61
2018-04-07T03:37:46.813Z,5.58
2018-04-07T03:39:08.864Z,5.54
2018-04-07T03:40:30.924Z,5.43
2018-04-07T03:41:52.982Z,5.42
2018-04-07T03:43:14.756Z,5.43
2018-04-07T03:44:36.585Z,5.42
2018-04-07T03:45:58.380Z,5.4
2018-04-07T03:47:20.178Z,5.53
2018-04-07T03:48:42.227Z,5.45
2018-04-07T03:50:04.022Z,5.49
2018-04-07T03:51:25.539Z,5.42
2018-04-07T03:52:47.065Z,5.39
2018-04-07T03:54:08.869Z,5.43
2018-04-07T03:55:30.921Z,5.43
2018-04-07T03:56:52.441Z,5.43
2018-04-07T03:58:14.230Z,5.42
2018-04-07T03:59:35.762Z,5.35
2018-04-07T04:00:57.814Z,5.38
2018-04-07T04:02:19.864Z,5.45
2018-04-07T04:03:41.650Z,5.43
2018-04-07T04:05:03.435Z,5.39
2018-04-07T04:06:25.215Z,5.42
2018-04-07T04:07:46.736Z,5.42
2018-04-07T04:09:08.788Z,5.4
2018-04-07T04:10:30.841Z,5.31
2018-04-07T04:11:52.620Z,5.36
2018-04-07T04:13:14.409Z,5.28
2018-04-07T04:14:36.450Z,5.27
2018-04-07T04:15:57.987Z,5.27
2018-04-07T04:17:19.771Z,5.25
2018-04-07T04:18:41.307Z,5.3
2018-04-07T04:20:02.837Z,5.3
2018-04-07T04:21:24.613Z,5.27
2018-04-07T04:22:46.407Z,5.25
2018-04-07T04:24:07.937Z,5.42
2018-04-07T04:25:29.723Z,5.38
2018-04-07T04:26:50.988Z,5.36
2018-04-07T04:28:13.043Z,5.27
2018-04-07T04:29:34.318Z,5.4
2018-04-07T04:30:55.578Z,5.39
2018-04-07T04:32:17.620Z,5.45
2018-04-07T04:33:39.138Z,5.42
2018-04-07T04:35:00.670Z,5.48
2018-04-07T04:36:22.741Z,5.43
2018-04-07T04:37:44.838Z,5.43
2018-04-07T04:39:06.632Z,5.46
2018-04-07T04:40:28.414Z,5.63
2018-04-07T04:41:50.201Z,5.74
2018-04-07T04:43:11.987Z,5.68
2018-04-07T04:44:34.031Z,5.71
2018-04-07T04:45:55.824Z,5.82
2018-04-07T04:47:17.610Z,5.75
2018-04-07T04:48:39.404Z,5.76
2018-04-07T04:50:01.228Z,5.75
2018-04-07T04:51:22.749Z,5.79
2018-04-07T04:52:44.795Z,5.85
2018-04-07T04:54:06.605Z,5.82
2018-04-07T04:55:28.137Z,5.83
2018-04-07T04:56:50.187Z,5.83
2018-04-07T04:58:12.249Z,5.82
2018-04-07T04:59:33.004Z,5.89
2018-04-07T05:00:54.794Z,5.99
2018-04-07T05:02:16.574Z,6
2018-04-07T05:03:38.103Z,6.03
2018-04-07T05:04:59.898Z,6.06
2018-04-07T05:06:21.700Z,6.27
2018-04-07T05:07:43.243Z,6.21
2018-04-07T05:09:05.033Z,6.21
2018-04-07T05:10:26.593Z,6.19
2018-04-07T05:11:48.112Z,6.22
2018-04-07T05:13:10.256Z,6.19
2018-04-07T05:14:32.049Z,6.34
2018-04-07T05:15:54.104Z,6.37
2018-04-07T05:17:16.153Z,6.46
2018-04-07T05:18:38.187Z,6.48
2018-04-07T05:19:59.716Z,6.51
2018-04-07T05:21:21.533Z,6.48
2018-04-07T05:22:43.573Z,6.52
2018-04-07T05:24:05.101Z,6.54
2018-04-07T05:25:26.653Z,6.56
2018-04-07T05:26:48.710Z,6.52
2018-04-07T05:28:10.502Z,6.67
2018-04-07T05:29:32.548Z,6.74
2018-04-07T05:30:54.603Z,6.67
2018-04-07T05:32:16.666Z,6.84
2018-04-07T05:33:38.453Z,6.79
2018-04-07T05:34:59.733Z,6.88
2018-04-07T05:36:21.770Z,6.92
2018-04-07T05:37:43.565Z,7.05
2018-04-07T05:39:05.605Z,7.02
2018-04-07T05:40:27.180Z,7.16
2018-04-07T05:41:48.969Z,7.16
2018-04-07T05:43:11.023Z,7.27
2018-04-07T05:44:33.077Z,7.32
2018-04-07T05:45:54.910Z,7.45
2018-04-07T05:47:16.701Z,7.55
2018-04-07T05:48:38.483Z,7.89
2018-04-07T05:50:00.554Z,8.18
2018-04-07T05:51:22.614Z,8.71
2018-04-07T05:52:44.408Z,9.04
2018-04-07T05:54:06.206Z,9.42
2018-04-07T05:55:28.286Z,9.83
2018-04-07T05:56:49.567Z,10.15
2018-04-07T05:58:11.382Z,10.47
2018-04-07T05:59:33.457Z,10.84
2018-04-07T06:00:55.531Z,11
2018-04-07T06:02:17.328Z,11.22
2018-04-07T06:03:39.153Z,11.27
2018-04-07T06:05:01.214Z,11.29
2018-04-07T06:06:22.747Z,11.51
2018-04-07T06:07:44.542Z,11.79
2018-04-07T06:09:06.346Z,12.31
2018-04-07T06:10:27.890Z,12.31
2018-04-07T06:11:49.945Z,12.79
2018-04-07T06:13:11.744Z,13.12
2018-04-07T06:14:33.594Z,13.64
2018-04-07T06:15:55.145Z,13.55
2018-04-07T06:17:16.964Z,13.67
2018-04-07T06:18:39.039Z,14.07
2018-04-07T06:20:01.127Z,14.72
2018-04-07T06:21:23.206Z,15.02
2018-04-07T06:22:45.278Z,14.7
2018-04-07T06:24:07.487Z,14.42
2018-04-07T06:25:29.060Z,14.37
2018-04-07T06:26:51.005Z,14.39
2018-04-07T06:28:12.916Z,14.25
2018-04-07T06:29:34.446Z,14.68
2018-04-07T06:30:56.259Z,15.03
2018-04-07T06:32:18.062Z,15.13
2018-04-07T06:33:40.115Z,15.16
2018-04-07T06:35:02.116Z,15.59
2018-04-07T06:36:24.204Z,15.2
2018-04-07T06:37:46.290Z,15.64
2018-04-07T06:39:07.834Z,16.35
2018-04-07T06:40:29.644Z,16.31
2018-04-07T06:41:51.455Z,16.6
2018-04-07T06:43:13.372Z,16.49
2018-04-07T06:44:35.187Z,16.89
2018-04-07T06:45:56.989Z,17
2018-04-07T06:47:18.809Z,17.06
2018-04-07T06:48:40.371Z,17.34
2018-04-07T06:50:02.186Z,17.79
2018-04-07T06:51:23.737Z,17.75
2018-04-07T06:52:45.565Z,17.33
2018-04-07T06:54:07.381Z,17.15
2018-04-07T06:55:29.474Z,17.12
2018-04-07T06:56:51.561Z,17.86
2018-04-07T06:58:13.415Z,18.33
2018-04-07T06:59:35.222Z,17.99
2018-04-07T07:00:57.026Z,18.05
2018-04-07T07:02:18.922Z,17.9
2018-04-07T07:03:40.993Z,17.77
2018-04-07T07:05:03.058Z,17.51
2018-04-07T07:06:25.127Z,17.18
2018-04-07T07:07:47.207Z,17.81
2018-04-07T07:09:09.058Z,17.75
2018-04-07T07:10:31.136Z,18.6
2018-04-07T07:11:53.209Z,19.18
2018-04-07T07:13:14.764Z,19.11
2018-04-07T07:14:35.805Z,18.92
2018-04-07T07:15:57.874Z,18.82
2018-04-07T07:17:19.690Z,19.19
2018-04-07T07:18:41.517Z,19.71
2018-04-07T07:20:03.610Z,19.65
2018-04-07T07:21:25.449Z,18.82
2018-04-07T07:22:47.547Z,17.58
2018-04-07T07:24:09.623Z,17.3
2018-04-07T07:25:31.481Z,18.05
2018-04-07T07:26:53.034Z,18.25
2018-04-07T07:28:15.125Z,17.7
2018-04-07T07:29:36.696Z,16.98
2018-04-07T07:30:58.508Z,17.4
2018-04-07T07:32:20.575Z,17.78
2018-04-07T07:33:42.407Z,18.11
2018-04-07T07:35:04.509Z,17.92
2018-04-07T07:36:26.059Z,18.07
2018-04-07T07:37:48.169Z,18.1
2018-04-07T07:39:10.238Z,18.5
2018-04-07T07:40:32.324Z,18.05
2018-04-07T07:41:54.424Z,18.03
2018-04-07T07:43:15.898Z,18.45
2018-04-07T07:44:37.740Z,18.3
2018-04-07T07:45:59.841Z,18.66
2018-04-07T07:47:21.956Z,18.72
2018-04-07T07:48:43.804Z,17.96
2018-04-07T07:50:05.629Z,16.71
2018-04-07T07:51:27.719Z,15.2
2018-04-07T07:52:49.859Z,14.33
2018-04-07T07:54:11.688Z,13.51
2018-04-07T07:55:33.497Z,13.33
2018-04-07T07:56:55.315Z,13.14
2018-04-07T07:58:17.153Z,13.05
2018-04-07T07:59:39.241Z,12.95
2018-04-07T08:01:01.335Z,12.78
2018-04-07T08:02:23.139Z,12.53
2018-04-07T08:03:44.451Z,12.34
2018-04-07T08:05:06.541Z,12.29
2018-04-07T08:07:00.525Z,12.39
2018-04-07T08:08:22.085Z,12.5
2018-04-07T08:09:43.893Z,12.38
2018-04-07T08:11:05.951Z,12.56
2018-04-07T08:12:27.782Z,12.7
2018-04-07T08:13:49.606Z,12.59
2018-04-07T08:15:11.690Z,12.59
2018-04-07T08:16:33.763Z,12.71
2018-04-07T08:17:55.567Z,12.59
2018-04-07T08:19:17.640Z,12.6
2018-04-07T08:20:39.480Z,12.59
2018-04-07T08:22:01.790Z,12.6
2018-04-07T08:23:23.867Z,12.54
2018-04-07T08:24:45.416Z,12.54
2018-04-07T08:26:07.553Z,12.54
2018-04-07T08:27:29.718Z,12.53
2018-04-07T08:28:51.812Z,12.77
2018-04-07T08:30:13.880Z,13.04
2018-04-07T08:31:35.687Z,13.17
2018-04-07T08:32:56.963Z,13.29
2018-04-07T08:34:18.780Z,13.08
2018-04-07T08:35:40.866Z,13.15
2018-04-07T08:37:02.722Z,13.05
2018-04-07T08:38:26.399Z,13.05
2018-04-07T08:39:48.523Z,13.19
2018-04-07T08:41:10.339Z,13.28
2018-04-07T08:42:32.161Z,13.45
2018-04-07T08:43:54.245Z,13.49
2018-04-07T08:45:16.068Z,13.55
2018-04-07T08:46:38.027Z,13.54
2018-04-07T08:47:59.848Z,13.7
2018-04-07T08:49:21.942Z,13.63
2018-04-07T08:50:43.226Z,13.82
2018-04-07T08:52:05.044Z,13.81
2018-04-07T08:53:27.204Z,13.77
2018-04-07T08:54:48.418Z,13.69
2018-04-07T08:56:09.954Z,13.81
2018-04-07T08:57:31.860Z,13.89
2018-04-07T08:58:53.742Z,13.95
2018-04-07T09:00:15.550Z,13.95
2018-04-07T09:01:37.619Z,14.1
2018-04-07T09:02:59.435Z,14.25
2018-04-07T09:04:20.962Z,14.22
2018-04-07T09:05:42.524Z,14.36
2018-04-07T09:07:04.620Z,14.32
2018-04-07T09:08:26.448Z,14.37
2018-04-07T09:09:48.272Z,14.7
2018-04-07T09:11:10.337Z,14.52
2018-04-07T09:12:32.174Z,14.42
2018-04-07T09:13:54.252Z,14.55
2018-04-07T09:15:16.326Z,14.57
2018-04-07T09:16:38.152Z,14.57
2018-04-07T09:18:00.219Z,14.68
2018-04-07T09:19:22.084Z,14.55
2018-04-07T09:20:43.914Z,14.55
2018-04-07T09:22:05.468Z,14.43
2018-04-07T09:23:27.532Z,14.58
2018-04-07T09:24:49.071Z,14.72
2018-04-07T09:26:11.151Z,14.83
2018-04-07T09:27:32.969Z,14.96
2018-04-07T09:28:54.785Z,14.98
2018-04-07T09:30:16.870Z,14.99
2018-04-07T09:31:38.762Z,14.98
2018-04-07T09:33:00.574Z,15.01
2018-04-07T09:34:22.646Z,15.09
2018-04-07T09:35:44.736Z,15.11
2018-04-07T09:37:06.533Z,15.16
2018-04-07T09:38:28.369Z,15.14
2018-04-07T09:39:49.644Z,15.2
2018-04-07T09:41:11.745Z,15.16
2018-04-07T09:42:33.841Z,15.25
2018-04-07T09:43:55.396Z,15.31
2018-04-07T09:45:17.220Z,15.32
2018-04-07T09:46:39.281Z,15.35
2018-04-07T09:48:01.347Z,15.39
2018-04-07T09:49:23.432Z,15.54
2018-04-07T09:50:45.538Z,15.57
2018-04-07T09:52:07.405Z,15.39
2018-04-07T09:53:29.499Z,15.47
2018-04-07T09:54:51.579Z,15.59
2018-04-07T09:56:13.394Z,15.51
2018-04-07T09:57:35.468Z,15.64
2018-04-07T09:58:57.546Z,15.65
2018-04-07T10:00:19.634Z,15.64
2018-04-07T10:01:41.710Z,15.56
2018-04-07T10:03:03.764Z,15.64
2018-04-07T10:04:25.865Z,15.67
2018-04-07T10:05:47.664Z,15.87
2018-04-07T10:07:09.241Z,15.9
2018-04-07T10:08:31.317Z,16.01
2018-04-07T10:09:53.418Z,15.75
2018-04-07T10:11:15.250Z,15.1
2018-04-07T10:12:37.082Z,14.47
2018-04-07T10:13:59.168Z,14.28
2018-04-07T10:15:21.255Z,12.38
